Data for 06/04/2013

Time Sea-Level Adjusted Pressure Absolute Pressure Temperature Relative Humidity Dew Point   
(mb) (inHg) (mb) (inHg) (C) (F) (%) (C) (F)
00:05 1021 30.15 850 25.1 6.2 43.1 84 3.7 38.6
00:10 1021 30.15 850 25.1 6.2 43.1 84 3.6 38.5
00:15 1021 30.15 850 25.1 6.2 43.1 83 3.5 38.4
00:20 1021 30.15 850 25.1 6.2 43.1 83 3.5 38.3
00:25 1021 30.15 851 25.13 6.2 43.1 83 3.6 38.4
00:30 1021 30.15 851 25.13 6.1 43 84 3.6 38.5
00:35 1021 30.15 851 25.13 6 42.9 84 3.6 38.5
00:40 1021 30.15 851 25.13 6 42.9 84 3.6 38.5
00:45 1021 30.15 851 25.13 6.1 42.9 85 3.7 38.7
00:50 1021 30.15 851 25.13 6 42.8 85 3.7 38.6
00:55 1021 30.15 851 25.13 6 42.8 85 3.7 38.6
01:00 1021 30.15 851 25.13 5.9 42.7 85 3.6 38.4
01:05 1021 30.15 850 25.1 5.8 42.5 85 3.5 38.4
01:10 1021 30.15 851 25.13 5.8 42.5 86 3.7 38.6
01:15 1021 30.15 851 25.13 5.7 42.3 86 3.5 38.4
01:20 1021 30.15 851 25.13 5.7 42.2 86 3.5 38.4
01:25 1021 30.15 851 25.13 5.7 42.2 86 3.5 38.3
01:30 1021 30.15 851 25.13 5.7 42.2 86 3.5 38.3
01:35 1021 30.15 851 25.13 5.6 42 86 3.3 38
01:40 1021 30.15 851 25.13 5.6 42 87 3.5 38.3
01:45 1021 30.15 851 25.13 5.5 42 87 3.6 38.4
01:50 1021 30.15 851 25.13 5.5 42 87 3.6 38.5
01:55 1021 30.15 851 25.13 5.6 42 87 3.5 38.3
02:00 1021 30.15 851 25.13 5.5 42 87 3.6 38.4
02:05 1021 30.15 851 25.13 5.5 41.9 87 3.5 38.4
02:10 1022 30.18 851 25.13 5.5 41.9 88 3.6 38.5
02:15 1022 30.18 851 25.13 5.6 42 87 3.6 38.5
02:20 1022 30.18 851 25.13 5.6 42 88 3.7 38.7
02:25 1022 30.18 851 25.13 5.6 42.1 88 3.7 38.7
02:30 1022 30.18 851 25.13 5.5 42 88 3.7 38.6
02:35 1022 30.18 851 25.13 5.5 41.9 88 3.6 38.6
02:40 1022 30.18 851 25.13 5.5 41.9 88 3.6 38.5
02:45 1022 30.18 851 25.13 5.5 41.8 88 3.6 38.6
02:50 1022 30.18 851 25.13 5.5 41.8 87 3.5 38.4
02:55 1022 30.18 851 25.13 5.4 41.7 88 3.6 38.4
03:00 1022 30.18 851 25.13 5.4 41.6 88 3.6 38.4
03:05 1022 30.18 851 25.13 5.3 41.5 88 3.5 38.3
03:10 1022 30.18 851 25.13 5.3 41.5 88 3.5 38.3
03:15 1022 30.18 851 25.13 5.3 41.5 89 3.6 38.4
03:20 1022 30.18 851 25.13 5.3 41.6 88 3.6 38.4
03:25 1022 30.18 851 25.13 5.3 41.5 89 3.6 38.5
03:30 1022 30.18 851 25.13 5.3 41.5 89 3.6 38.5
03:35 1022 30.18 851 25.13 5.2 41.4 90 3.6 38.5
03:40 1022 30.18 851 25.13 5.1 41.2 90 3.6 38.6
03:45 1022 30.18 851 25.13 5.1 41.2 90 3.7 38.6
03:50 1022 30.18 851 25.13 5.1 41.2 91 3.7 38.7
03:55 1022 30.18 851 25.13 5.1 41.2 90 3.6 38.5
04:00 1022 30.18 851 25.13 5.1 41.2 90 3.6 38.5
04:05 1022 30.18 851 25.13 5 41.1 90 3.6 38.5
04:10 1022 30.18 851 25.13 5 41.1 91 3.6 38.5
04:15 1022 30.18 851 25.13 5.1 41.1 91 3.6 38.6
04:20 1022 30.18 851 25.13 5 41.1 91 3.6 38.6
04:25 1022 30.18 851 25.13 5 41.1 91 3.6 38.5
04:30 1022 30.18 851 25.13 5 41.1 90 3.6 38.5
04:35 1022 30.18 851 25.13 5 41.1 90 3.6 38.4
04:40 1022 30.18 851 25.13 5 41 90 3.5 38.2
04:45 1022 30.18 851 25.13 5 41 90 3.5 38.3
04:50 1022 30.18 851 25.13 4.9 40.9 90 3.4 38.1
04:55 1022 30.18 851 25.13 4.9 40.9 90 3.4 38.2
05:00 1022 30.18 851 25.13 5 40.9 89 3.3 38
05:05 1022 30.18 851 25.13 5 40.9 89 3.4 38.1
05:10 1022 30.18 851 25.13 5 41 89 3.3 37.9
05:15 1022 30.18 851 25.13 5 41 89 3.3 37.9
05:20 1022 30.18 852 25.16 5.1 41.1 89 3.4 38
05:25 1022 30.18 852 25.16 5 41.1 88 3.2 37.7
05:30 1022 30.18 852 25.16 5 41 87 3.1 37.5
05:35 1022 30.18 852 25.16 4.9 40.9 88 3 37.5
05:40 1022 30.18 852 25.16 5 40.9 87 2.9 37.3
05:45 1022 30.18 852 25.16 5 41 87 3 37.3
05:50 1022 30.18 852 25.16 5 41.1 85 2.7 36.8
05:55 1023 30.21 852 25.16 5 41 85 2.7 36.8
06:00 1023 30.21 852 25.16 5.1 41.1 85 2.7 36.9
06:05 1023 30.21 852 25.16 5.1 41.2 84 2.6 36.7
06:10 1023 30.21 852 25.16 5.1 41.1 84 2.5 36.5
06:15 1023 30.21 852 25.16 5.1 41.2 84 2.7 36.8
06:20 1023 30.21 852 25.16 5.1 41.2 85 2.8 37
06:25 1023 30.21 852 25.16 5.2 41.3 84 2.7 36.8
06:30 1023 30.21 852 25.16 5.1 41.3 84 2.7 36.9
06:35 1023 30.21 852 25.16 5.3 41.5 84 2.8 37
06:40 1023 30.21 852 25.16 5.3 41.6 81 2.4 36.3
06:45 1023 30.21 852 25.16 5.3 41.5 81 2.3 36.2
06:50 1023 30.21 852 25.16 5.4 41.6 81 2.4 36.3
06:55 1023 30.21 852 25.16 5.4 41.7 80 2.2 36
07:00 1023 30.21 852 25.16 5.4 41.7 81 2.3 36.2
07:05 1023 30.21 852 25.16 5.6 42.1 80 2.5 36.5
07:10 1023 30.21 852 25.16 5.9 42.7 80 2.8 37.1
07:15 1023 30.21 852 25.16 6 42.8 78 2.5 36.6
07:20 1023 30.21 852 25.16 6.1 42.9 77 2.4 36.3
07:25 1023 30.21 852 25.16 6.1 43 77 2.3 36.2
07:30 1023 30.21 852 25.16 6.1 42.9 78 2.5 36.5
07:35 1023 30.21 852 25.16 6 42.8 79 2.5 36.6
07:40 1023 30.21 853 25.19 5.9 42.7 79 2.5 36.5
07:45 1023 30.21 852 25.16 5.9 42.7 79 2.7 36.8
07:50 1023 30.21 853 25.19 6.1 43 76 2.3 36.1
07:55 1023 30.21 853 25.19 6.1 43 76 2.2 36
08:00 1023 30.21 853 25.19 6.2 43.1 76 2.3 36.2
08:05 1023 30.21 853 25.19 6.2 43.2 76 2.3 36.2
08:10 1023 30.21 853 25.19 6.2 43.2 75 2.2 36
08:15 1023 30.21 853 25.19 6.2 43.2 76 2.3 36.2
08:20 1024 30.24 853 25.19 6.2 43.2 76 2.3 36.1
08:25 1024 30.24 853 25.19 6.5 43.7 74 2.2 36
08:30 1024 30.24 853 25.19 6.5 43.7 74 2.3 36.1
08:35 1024 30.24 853 25.19 6.6 43.8 72 2 35.6
08:40 1024 30.24 853 25.19 6.2 43.2 75 2 35.6
08:45 1024 30.24 853 25.19 6.3 43.3 73 1.8 35.2
08:50 1024 30.24 853 25.19 6.7 44 69 1.5 34.7
08:55 1024 30.24 853 25.19 6.5 43.8 72 1.8 35.3
09:00 1024 30.24 853 25.19 6.5 43.6 73 1.9 35.4
09:05 1024 30.24 853 25.19 7.1 44.7 68 1.7 35
09:10 1024 30.24 853 25.19 7.4 45.2 67 1.7 35.1
09:15 1024 30.24 853 25.19 7.6 45.6 66 1.8 35.2
09:20 1024 30.24 853 25.19 8 46.4 62 1.1 34
09:25 1024 30.24 853 25.19 7.7 45.9 62 0.9 33.7
09:30 1024 30.24 853 25.19 7.8 46.1 62 1 33.8
09:35 1024 30.24 853 25.19 8.1 46.6 61 1 33.8
09:40 1024 30.24 853 25.19 8.6 47.4 58 0.8 33.5
09:45 1024 30.24 853 25.19 8.6 47.5 57 0.6 33.1
09:50 1024 30.24 853 25.19 8.8 47.9 56 0.6 33.1
09:55 1024 30.24 853 25.19 9.3 48.7 55 0.7 33.3
10:00 1024 30.24 853 25.19 8.9 48 55 0.4 32.7
10:05 1024 30.24 853 25.19 8.5 47.4 55 -0 32
10:10 1024 30.24 853 25.19 9 48.2 54 0.1 32.2
10:15 1024 30.24 853 25.19 9.4 48.8 56 1.1 33.9
10:20 1024 30.24 853 25.19 8.8 47.8 56 0.6 33.1
10:25 1024 30.24 853 25.19 8.5 47.4 58 0.8 33.4
10:30 1024 30.24 853 25.19 9.2 48.5 55 0.7 33.2
10:35 1024 30.24 853 25.19 9.1 48.3 58 1.3 34.4
10:40 1024 30.24 853 25.19 8.8 47.9 55 0.3 32.5
10:45 1024 30.24 853 25.19 9.3 48.8 55 0.7 33.3
10:50 1024 30.24 853 25.19 9.5 49 54 0.6 33.1
10:55 1024 30.24 853 25.19 9.1 48.5 58 1.4 34.6
11:00 1024 30.24 853 25.19 9.6 49.3 57 1.5 34.6
11:05 1024 30.24 853 25.19 9.4 48.9 56 1.1 34
11:10 1024 30.24 853 25.19 9.9 49.9 55 1.5 34.6
11:15 1024 30.24 853 25.19 10.2 50.3 53 1 33.8
11:20 1024 30.24 853 25.19 9.7 49.5 55 1.1 33.9
11:25 1024 30.24 853 25.19 9.8 49.7 54 1.1 34
11:30 1024 30.24 853 25.19 9.9 49.9 55 1.4 34.4
11:35 1024 30.24 853 25.19 9.5 49.2 54 0.8 33.5
11:40 1024 30.24 853 25.19 11 51.8 50 0.9 33.6
11:45 1024 30.24 853 25.19 11 51.7 53 1.9 35.4
11:50 1024 30.24 853 25.19 9.9 49.9 55 1.4 34.6
11:55 1024 30.24 853 25.19 9.6 49.4 56 1.3 34.3
12:00 1024 30.24 853 25.19 9.7 49.5 56 1.4 34.6
12:05 1024 30.24 853 25.19 10.1 50.2 54 1.4 34.5
12:10 1024 30.24 853 25.19 10.2 50.3 54 1.2 34.1
12:10 1024 30.24 853 25.19 10.2 50.3 54 1.2 34.1
12:15 1024 30.24 853 25.19 10.3 50.6 54 1.6 34.9
12:20 1024 30.24 853 25.19 10.3 50.5 54 1.5 34.6
12:25 1024 30.24 853 25.19 10.7 51.2 52 1.2 34.2
12:30 1024 30.24 853 25.19 10.4 50.7 55 1.7 35
12:35 1024 30.24 853 25.19 10.2 50.4 54 1.3 34.4
12:40 1024 30.24 853 25.19 10.7 51.2 52 1.4 34.5
12:45 1024 30.24 853 25.19 10.6 51.2 51 1 33.8
12:50 1024 30.24 853 25.19 11 51.8 49 0.8 33.5
12:55 1024 30.24 853 25.19 11.4 52.6 49 1.1 34
13:00 1024 30.24 853 25.19 11.4 52.5 49 1.2 34.2
13:05 1024 30.24 853 25.19 11.6 52.8 48 0.9 33.7
13:10 1024 30.24 853 25.19 11.4 52.5 48 0.7 33.3
13:15 1024 30.24 853 25.19 11.4 52.6 49 1.2 34.1
13:20 1024 30.24 853 25.19 11.6 52.9 48 1.1 34
13:25 1024 30.24 853 25.19 11.6 53 48 1.1 34
13:30 1024 30.24 853 25.19 11.4 52.5 49 1.1 33.9
13:35 1024 30.24 853 25.19 12.2 54 46 0.9 33.5
13:40 1024 30.24 853 25.19 12.1 53.8 46 0.9 33.6
13:45 1024 30.24 853 25.19 12.3 54.1 46 1 33.8
13:50 1024 30.24 853 25.19 12.1 53.9 46 0.9 33.7
13:55 1024 30.24 853 25.19 12.4 54.3 45 0.9 33.7
14:00 1024 30.24 853 25.19 12.6 54.8 43 0.5 32.8
14:05 1024 30.24 853 25.19 12.6 54.7 45 0.9 33.7
14:10 1024 30.24 853 25.19 12.7 54.9 43 0.4 32.7
14:15 1024 30.24 853 25.19 12.6 54.6 45 1 33.8
14:20 1024 30.24 853 25.19 12.4 54.4 45 0.8 33.4
14:25 1024 30.24 853 25.19 12.8 55.1 43 0.6 33
14:30 1024 30.24 853 25.19 13.1 55.7 43 0.9 33.6
14:35 1024 30.24 853 25.19 13.2 55.8 42 0.7 33.3
14:40 1024 30.24 853 25.19 12.5 54.6 45 1 33.8
14:45 1024 30.24 853 25.19 12.6 54.6 44 0.8 33.5
14:50 1024 30.24 853 25.19 12.7 54.9 45 1.1 33.9
14:55 1024 30.24 853 25.19 13 55.3 42 0.4 32.8
15:00 1024 30.24 853 25.19 13.4 56.2 42 0.9 33.6
15:05 1024 30.24 853 25.19 12.7 54.8 45 1.1 34.1
15:10 1024 30.24 853 25.19 12.9 55.2 44 0.9 33.6
15:15 1024 30.24 853 25.19 13.2 55.8 44 1.4 34.5
15:20 1024 30.24 853 25.19 13.1 55.6 44 1.4 34.4
15:25 1024 30.24 853 25.19 13 55.3 44 1.2 34.2
15:30 1024 30.24 853 25.19 13.9 57 41 0.8 33.5
15:35 1024 30.24 853 25.19 14.5 58.2 41 1.6 34.9
15:40 1024 30.24 853 25.19 15.2 59.3 37 0.8 33.5
15:45 1024 30.24 853 25.19 15 59.1 39 1.2 34.1
15:50 1024 30.24 853 25.19 14.2 57.6 41 1.1 34
15:55 1024 30.24 853 25.19 13.6 56.5 40 0.4 32.7
16:00 1024 30.24 853 25.19 13.8 56.8 41 0.8 33.4
16:05 1024 30.24 853 25.19 13.4 56.2 41 0.5 32.8
16:10 1024 30.24 853 25.19 13.4 56 41 0.4 32.8
16:15 1024 30.24 853 25.19 13 55.3 41 -0 32
16:20 1024 30.24 853 25.19 14.2 57.6 36 -0.5 31
16:25 1024 30.24 853 25.19 14.2 57.5 38 0.1 32.2
16:30 1024 30.24 853 25.19 14.6 58.2 38 0.4 32.8
16:35 1024 30.24 853 25.19 13.6 56.5 39 -0 32
16:40 1024 30.24 853 25.19 13.6 56.4 37 -0.7 30.8
16:45 1024 30.24 853 25.19 13.7 56.6 36 -1.1 29.9
16:50 1024 30.24 853 25.19 13.2 55.8 35 -1.9 28.5
16:55 1024 30.24 853 25.19 13.5 56.3 36 -1.4 29.5
17:00 1024 30.24 853 25.19 13.3 56 36 -1.4 29.5
17:05 1024 30.24 853 25.19 13.5 56.3 38 -0.5 31.1
17:10 1024 30.24 853 25.19 13.5 56.3 38 -0.5 31
17:15 1024 30.24 853 25.19 14.2 57.6 36 -0.6 30.9
17:20 1024 30.24 853 25.19 14.2 57.6 37 -0.3 31.5
17:25 1024 30.24 853 25.19 13.9 56.9 39 0.3 32.6
17:30 1024 30.24 853 25.19 13.6 56.5 37 -0.7 30.8
17:35 1024 30.24 853 25.19 14.1 57.4 37 -0.1 31.8
17:40 1024 30.24 853 25.19 13.5 56.2 37 -0.8 30.6
17:45 1024 30.24 853 25.19 13.1 55.6 38 -1 30.2
17:50 1024 30.24 853 25.19 13.2 55.7 38 -0.9 30.4
17:55 1024 30.24 853 25.19 13.6 56.4 35 -1.7 29
18:00 1024 30.24 853 25.19 13.5 56.3 35 -1.6 29.1
18:05 1024 30.24 853 25.19 13.3 55.9 36 -1.5 29.3
18:10 1024 30.24 853 25.19 13.9 57 33 -1.9 28.5
18:15 1024 30.24 853 25.19 13.6 56.6 37 -0.8 30.5
18:20 1024 30.24 853 25.19 13.7 56.6 37 -0.7 30.8
18:25 1024 30.24 853 25.19 13.6 56.4 39 0.1 32.2
18:30 1024 30.24 853 25.19 13.2 55.7 38 -0.6 30.9
18:35 1024 30.24 853 25.19 13.2 55.7 39 -0.3 31.5
18:40 1024 30.24 853 25.19 13 55.5 38 -0.7 30.7
18:45 1024 30.24 853 25.19 12.7 54.9 39 -0.8 30.6
18:50 1024 30.24 853 25.19 12.6 54.6 40 -0.6 30.8
18:55 1024 30.24 853 25.19 12.4 54.3 48 1.8 35.3
19:00 1024 30.24 853 25.19 12 53.6 53 2.8 37
19:05 1024 30.24 853 25.19 11.6 52.9 55 2.9 37.3
19:10 1024 30.24 853 25.19 11.3 52.4 55 2.7 36.9
19:15 1024 30.24 853 25.19 11.1 52.1 56 2.8 37
19:20 1024 30.24 853 25.19 11 51.8 58 3.1 37.5
19:25 1024 30.24 853 25.19 10.7 51.3 59 3.2 37.7
19:30 1024 30.24 853 25.19 10.5 50.8 60 3.2 37.7
19:35 1024 30.24 853 25.19 10.2 50.4 61 3.1 37.6
19:40 1024 30.24 853 25.19 10 50.1 62 3 37.4
19:45 1024 30.24 853 25.19 9.8 49.7 63 3.1 37.6
19:50 1024 30.24 853 25.19 9.7 49.4 64 3.3 37.9
19:55 1024 30.24 853 25.19 9.5 49.1 65 3.3 38
20:00 1024 30.24 853 25.19 9.3 48.7 66 3.3 38
20:05 1024 30.24 853 25.19 9.1 48.4 67 3.4 38.1
20:10 1024 30.24 853 25.19 8.9 48 68 3.3 38
20:15 1024 30.24 853 25.19 8.7 47.7 69 3.3 37.9
20:20 1024 30.24 853 25.19 8.6 47.4 68 3 37.5
20:25 1024 30.24 853 25.19 8.5 47.2 69 3.1 37.6
20:30 1024 30.24 853 25.19 8.3 46.9 69 3 37.3
20:35 1024 30.24 853 25.19 8.1 46.7 69 2.9 37.2
20:40 1024 30.24 853 25.19 8.1 46.6 70 3 37.4
20:45 1024 30.24 853 25.19 7.9 46.3 71 3 37.4
20:50 1024 30.24 853 25.19 7.8 46.1 71 3 37.4
20:55 1024 30.24 853 25.19 7.7 45.9 72 3 37.4
21:00 1024 30.24 853 25.19 7.6 45.7 72 3 37.4
21:05 1024 30.24 853 25.19 7.5 45.5 73 2.9 37.2
21:10 1024 30.24 854 25.22 7.5 45.5 73 3 37.3
21:15 1024 30.24 854 25.22 7.4 45.3 72 2.8 37
21:20 1024 30.24 854 25.22 7.4 45.2 72 2.7 36.9
21:25 1024 30.24 854 25.22 7.3 45.2 73 2.7 36.9
21:30 1024 30.24 854 25.22 7.3 45.1 72 2.7 36.8
21:35 1024 30.24 854 25.22 7.3 45.1 73 2.7 36.9
21:40 1024 30.24 854 25.22 7.3 45.1 72 2.6 36.6
21:45 1024 30.24 854 25.22 7.2 45 72 2.5 36.5
21:50 1024 30.24 854 25.22 7.2 44.9 72 2.5 36.5
21:55 1024 30.24 854 25.22 7.2 44.9 72 2.5 36.5
22:00 1024 30.24 854 25.22 7.1 44.8 72 2.5 36.4
22:05 1024 30.24 854 25.22 7 44.7 72 2.4 36.3
22:10 1024 30.24 854 25.22 7.1 44.7 71 2.3 36.1
22:15 1024 30.24 854 25.22 7.1 44.7 72 2.3 36.1
22:20 1024 30.24 854 25.22 7.1 44.7 71 2.3 36.1
22:25 1024 30.24 854 25.22 7 44.6 72 2.3 36.1
22:30 1024 30.24 854 25.22 6.9 44.5 72 2.2 36
22:35 1024 30.24 854 25.22 6.9 44.5 72 2.3 36.1
22:40 1024 30.24 854 25.22 6.9 44.5 72 2.2 35.9
22:45 1024 30.24 854 25.22 6.9 44.3 73 2.3 36.1
22:50 1024 30.24 854 25.22 6.9 44.4 72 2.2 36
22:55 1024 30.24 854 25.22 6.8 44.2 73 2.3 36.1
23:00 1024 30.24 853 25.19 6.7 44.1 73 2.3 36.1
23:05 1024 30.24 853 25.19 6.7 44 74 2.3 36.1
23:10 1024 30.24 853 25.19 6.6 43.9 74 2.3 36.1
23:15 1024 30.24 853 25.19 6.6 43.8 74 2.3 36.2
23:20 1024 30.24 853 25.19 6.6 43.8 74 2.3 36.2
23:25 1024 30.24 853 25.19 6.5 43.7 75 2.4 36.3
23:30 1024 30.24 853 25.19 6.4 43.5 75 2.3 36.2
23:35 1024 30.24 853 25.19 6.4 43.4 75 2.3 36.1
23:40 1024 30.24 853 25.19 6.3 43.3 76 2.4 36.2
23:45 1024 30.24 853 25.19 6.2 43.2 76 2.3 36.2
23:50 1024 30.24 853 25.19 6.2 43.1 77 2.4 36.3
23:55 1024 30.24 853 25.19 6.1 43 77 2.4 36.4
24:00 1024 30.24 853 25.19 6 42.7 78 2.4 36.4